createdAt,value
2023-10-26T00:00:24.905Z,330.00
2023-10-26T00:01:19.978Z,333.00
2023-10-26T00:02:15.081Z,329.00
2023-10-26T00:03:11.208Z,331.00
2023-10-26T00:04:06.440Z,324.00
2023-10-26T00:05:01.837Z,323.00
2023-10-26T00:05:56.721Z,330.00
2023-10-26T00:06:51.688Z,329.00
2023-10-26T00:07:46.784Z,325.00
2023-10-26T00:08:41.732Z,331.00
2023-10-26T00:09:36.867Z,323.00
2023-10-26T00:10:32.129Z,327.00
2023-10-26T00:11:27.063Z,324.00
2023-10-26T00:12:22.086Z,327.00
2023-10-26T00:13:17.154Z,327.00
2023-10-26T00:14:12.132Z,328.00
2023-10-26T00:15:07.409Z,323.00
2023-10-26T00:16:02.354Z,322.00
2023-10-26T00:16:57.427Z,324.00
2023-10-26T00:17:52.444Z,327.00
2023-10-26T00:18:47.559Z,327.00
2023-10-26T00:19:42.619Z,328.00
2023-10-26T00:20:37.736Z,328.00
2023-10-26T00:21:32.669Z,318.00
2023-10-26T00:22:27.718Z,327.00
2023-10-26T00:23:22.753Z,325.00
2023-10-26T00:24:17.914Z,326.00
2023-10-26T00:25:13.012Z,325.00
2023-10-26T00:26:08.043Z,321.00
2023-10-26T00:27:05.212Z,328.00
2023-10-26T00:28:00.322Z,326.00
2023-10-26T00:28:55.462Z,330.00
2023-10-26T00:29:50.623Z,329.00
2023-10-26T00:30:45.617Z,329.00
2023-10-26T00:31:40.690Z,331.00
2023-10-26T00:32:35.679Z,325.00
2023-10-26T00:33:30.959Z,336.00
2023-10-26T00:34:26.182Z,324.00
2023-10-26T00:35:21.288Z,329.00
2023-10-26T00:36:16.312Z,328.00
2023-10-26T00:37:11.267Z,322.00
2023-10-26T00:38:06.245Z,329.00
2023-10-26T00:39:01.418Z,328.00
2023-10-26T00:39:56.550Z,329.00
2023-10-26T00:40:52.600Z,338.00
2023-10-26T00:41:47.600Z,326.00
2023-10-26T00:42:43.666Z,325.00
2023-10-26T00:43:38.720Z,326.00
2023-10-26T00:44:33.766Z,329.00
2023-10-26T00:45:29.621Z,328.00
2023-10-26T00:46:24.994Z,324.00
2023-10-26T00:47:20.032Z,328.00
2023-10-26T00:48:16.439Z,330.00
2023-10-26T00:49:11.624Z,330.00
2023-10-26T00:50:07.352Z,331.00
2023-10-26T00:51:02.561Z,330.00
2023-10-26T00:51:57.956Z,332.00
2023-10-26T00:52:53.555Z,325.00
2023-10-26T00:53:48.826Z,327.00
2023-10-26T00:54:44.638Z,324.00
2023-10-26T00:55:39.666Z,334.00
2023-10-26T00:56:34.962Z,326.00
2023-10-26T00:57:30.798Z,329.00
2023-10-26T00:58:26.096Z,328.00
2023-10-26T00:59:21.142Z,326.00
2023-10-26T01:00:17.672Z,329.00
2023-10-26T01:01:12.833Z,327.00
2023-10-26T01:02:08.539Z,329.00
2023-10-26T01:03:03.910Z,329.00
2023-10-26T01:03:58.949Z,331.00
2023-10-26T01:04:55.054Z,326.00
2023-10-26T01:05:50.444Z,326.00
2023-10-26T01:06:46.226Z,324.00
2023-10-26T01:07:41.334Z,321.00
2023-10-26T01:08:36.525Z,323.00
2023-10-26T01:09:32.367Z,322.00
2023-10-26T01:10:27.786Z,324.00
2023-10-26T01:11:22.830Z,324.00
2023-10-26T01:12:19.110Z,329.00
2023-10-26T01:13:14.321Z,324.00
2023-10-26T01:14:09.463Z,326.00
2023-10-26T01:15:05.772Z,326.00
2023-10-26T01:16:01.061Z,332.00
2023-10-26T01:16:56.895Z,325.00
2023-10-26T01:17:52.055Z,329.00
2023-10-26T01:18:47.225Z,328.00
2023-10-26T01:19:42.858Z,328.00
2023-10-26T01:20:38.035Z,326.00
2023-10-26T01:21:33.938Z,324.00
2023-10-26T01:22:29.088Z,329.00
2023-10-26T01:23:24.513Z,328.00
2023-10-26T01:24:19.608Z,327.00
2023-10-26T01:25:14.791Z,324.00
2023-10-26T01:26:09.786Z,322.00
2023-10-26T01:27:05.009Z,331.00
2023-10-26T01:28:00.111Z,322.00
2023-10-26T01:28:55.139Z,330.00
2023-10-26T01:29:50.107Z,330.00
2023-10-26T01:30:46.537Z,325.00
2023-10-26T01:31:41.857Z,326.00
2023-10-26T01:32:36.856Z,330.00
2023-10-26T01:33:32.202Z,327.00
2023-10-26T01:34:27.020Z,329.00
2023-10-26T01:35:22.082Z,325.00
2023-10-26T01:36:17.170Z,320.00
2023-10-26T01:37:12.302Z,325.00
2023-10-26T01:38:07.351Z,322.00
2023-10-26T01:39:05.528Z,322.00
2023-10-26T01:40:00.521Z,327.00
2023-10-26T01:40:55.584Z,328.00
2023-10-26T01:41:50.852Z,325.00
2023-10-26T01:42:45.749Z,330.00
2023-10-26T01:43:40.797Z,328.00
2023-10-26T01:44:35.874Z,332.00
2023-10-26T01:45:30.820Z,331.00
2023-10-26T01:46:25.899Z,328.00
2023-10-26T01:47:20.918Z,326.00
2023-10-26T01:48:16.182Z,329.00
2023-10-26T01:49:11.162Z,330.00
2023-10-26T01:50:06.217Z,327.00
2023-10-26T01:51:01.234Z,333.00
2023-10-26T01:51:56.312Z,324.00
2023-10-26T01:52:51.297Z,333.00
2023-10-26T01:53:49.106Z,332.00
2023-10-26T01:54:44.293Z,328.00
2023-10-26T01:55:39.188Z,327.00
2023-10-26T01:56:34.189Z,326.00
2023-10-26T01:57:29.398Z,330.00
2023-10-26T01:58:24.279Z,328.00
2023-10-26T01:59:19.370Z,330.00
2023-10-26T02:00:14.354Z,336.00
2023-10-26T02:01:09.374Z,332.00
2023-10-26T02:02:04.386Z,330.00
2023-10-26T02:02:59.674Z,329.00
2023-10-26T02:03:54.688Z,328.00
2023-10-26T02:04:50.642Z,331.00
2023-10-26T02:05:45.785Z,329.00
2023-10-26T02:06:41.230Z,325.00
2023-10-26T02:07:37.039Z,330.00
2023-10-26T02:08:32.182Z,329.00
2023-10-26T02:09:27.488Z,330.00
2023-10-26T02:10:23.765Z,328.00
2023-10-26T02:11:18.933Z,329.00
2023-10-26T02:12:14.885Z,328.00
2023-10-26T02:13:09.854Z,326.00
2023-10-26T02:14:05.152Z,329.00
2023-10-26T02:15:00.875Z,330.00
2023-10-26T02:15:56.061Z,418.00
2023-10-26T02:16:51.922Z,411.00
2023-10-26T02:17:47.272Z,411.00
2023-10-26T02:18:42.482Z,415.00
2023-10-26T02:19:38.174Z,413.00
2023-10-26T02:20:33.472Z,403.00
2023-10-26T02:21:28.544Z,410.00
2023-10-26T02:22:25.075Z,406.00
2023-10-26T02:23:20.147Z,410.00
2023-10-26T02:24:15.905Z,405.00
2023-10-26T02:25:11.005Z,405.00
2023-10-26T02:26:06.060Z,409.00
2023-10-26T02:27:01.950Z,409.00
2023-10-26T02:27:57.287Z,413.00
2023-10-26T02:28:52.906Z,410.00
2023-10-26T02:29:48.237Z,411.00
2023-10-26T02:30:43.403Z,409.00
2023-10-26T02:31:39.311Z,414.00
2023-10-26T02:32:34.557Z,409.00
2023-10-26T02:33:29.571Z,409.00
2023-10-26T02:34:25.954Z,416.00
2023-10-26T02:35:21.314Z,401.00
2023-10-26T02:36:17.165Z,416.00
2023-10-26T02:37:12.171Z,412.00
2023-10-26T02:38:07.532Z,413.00
2023-10-26T02:39:03.164Z,411.00
2023-10-26T02:39:58.332Z,418.00
2023-10-26T02:40:54.256Z,413.00
2023-10-26T02:41:49.292Z,412.00
2023-10-26T02:42:44.764Z,413.00
2023-10-26T02:43:40.566Z,415.00
2023-10-26T02:44:35.724Z,413.00
2023-10-26T02:45:31.049Z,411.00
2023-10-26T02:46:27.287Z,408.00
2023-10-26T02:47:22.461Z,413.00
2023-10-26T02:48:18.367Z,410.00
2023-10-26T02:49:13.460Z,405.00
2023-10-26T02:50:08.869Z,412.00
2023-10-26T02:51:04.742Z,412.00
2023-10-26T02:51:59.877Z,412.00
2023-10-26T02:52:55.678Z,414.00
2023-10-26T02:53:50.860Z,411.00
2023-10-26T02:54:46.277Z,414.00
2023-10-26T02:55:42.722Z,408.00
2023-10-26T02:56:37.181Z,409.00
2023-10-26T02:57:32.239Z,413.00
2023-10-26T02:58:28.789Z,417.00
2023-10-26T02:59:23.763Z,413.00
2023-10-26T03:00:19.713Z,413.00
2023-10-26T03:01:14.672Z,413.00
2023-10-26T03:02:09.861Z,409.00
2023-10-26T03:03:06.118Z,414.00
2023-10-26T03:04:01.259Z,413.00
2023-10-26T03:04:56.246Z,411.00
2023-10-26T03:05:51.421Z,417.00
2023-10-26T03:06:48.027Z,413.00
2023-10-26T03:07:43.355Z,411.00
2023-10-26T03:08:38.580Z,411.00
2023-10-26T03:09:34.255Z,412.00
2023-10-26T03:10:29.353Z,407.00
2023-10-26T03:11:25.397Z,417.00
2023-10-26T03:12:20.799Z,409.00
2023-10-26T03:13:15.878Z,414.00
2023-10-26T03:14:11.585Z,412.00
2023-10-26T03:15:06.794Z,411.00
2023-10-26T03:16:02.041Z,409.00
2023-10-26T03:16:58.186Z,413.00
2023-10-26T03:17:53.404Z,412.00
2023-10-26T03:18:49.210Z,412.00
2023-10-26T03:19:44.179Z,414.00
2023-10-26T03:20:39.381Z,411.00
2023-10-26T03:21:35.229Z,413.00
2023-10-26T03:22:30.353Z,414.00
2023-10-26T03:23:25.651Z,420.00
2023-10-26T03:24:20.744Z,418.00
2023-10-26T03:25:15.774Z,413.00
2023-10-26T03:26:11.676Z,414.00
2023-10-26T03:27:06.855Z,412.00
2023-10-26T03:28:02.042Z,418.00
2023-10-26T03:28:57.871Z,422.00
2023-10-26T03:29:53.107Z,418.00
2023-10-26T03:30:48.279Z,420.00
2023-10-26T03:31:43.593Z,416.00
2023-10-26T03:32:38.601Z,414.00
2023-10-26T03:33:33.828Z,418.00
2023-10-26T03:34:28.576Z,414.00
2023-10-26T03:35:23.621Z,416.00
2023-10-26T03:36:18.841Z,415.00
2023-10-26T03:37:13.874Z,415.00
2023-10-26T03:38:08.921Z,421.00
2023-10-26T03:39:04.136Z,418.00
2023-10-26T03:39:59.014Z,421.00
2023-10-26T03:40:54.048Z,418.00
2023-10-26T03:41:49.120Z,411.00
2023-10-26T03:42:44.138Z,419.00
2023-10-26T03:43:39.235Z,419.00
2023-10-26T03:44:38.685Z,418.00
2023-10-26T03:45:33.824Z,418.00
2023-10-26T03:46:29.170Z,418.00
2023-10-26T03:47:24.831Z,422.00
2023-10-26T03:48:20.266Z,428.00
2023-10-26T03:49:15.130Z,427.00
2023-10-26T03:50:11.679Z,420.00
2023-10-26T03:51:06.823Z,426.00
2023-10-26T03:52:02.712Z,421.00
2023-10-26T03:52:57.842Z,423.00
2023-10-26T03:53:53.104Z,423.00
2023-10-26T03:54:48.818Z,429.00
2023-10-26T03:55:44.034Z,423.00
2023-10-26T03:56:39.748Z,418.00
2023-10-26T03:57:34.947Z,422.00
2023-10-26T03:58:30.302Z,422.00
2023-10-26T03:59:25.912Z,425.00
2023-10-26T04:00:21.064Z,425.00
2023-10-26T04:01:16.224Z,422.00
2023-10-26T04:02:12.514Z,424.00
2023-10-26T04:03:07.654Z,429.00
2023-10-26T04:04:03.576Z,424.00
2023-10-26T04:04:58.602Z,417.00
2023-10-26T04:05:53.849Z,422.00
2023-10-26T04:06:49.608Z,423.00
2023-10-26T04:07:44.795Z,423.00
2023-10-26T04:08:40.935Z,436.00
2023-10-26T04:09:35.831Z,433.00
2023-10-26T04:10:31.049Z,433.00
2023-10-26T04:11:26.796Z,428.00
2023-10-26T04:12:22.016Z,426.00
2023-10-26T04:13:17.267Z,431.00
2023-10-26T04:14:13.597Z,430.00
2023-10-26T04:15:08.785Z,428.00
2023-10-26T04:16:04.635Z,429.00
2023-10-26T04:16:59.764Z,429.00
2023-10-26T04:17:55.111Z,427.00
2023-10-26T04:18:50.757Z,430.00
2023-10-26T04:19:45.960Z,434.00
2023-10-26T04:20:41.802Z,430.00
2023-10-26T04:21:36.973Z,439.00
2023-10-26T04:22:32.284Z,440.00
2023-10-26T04:23:28.053Z,432.00
2023-10-26T04:24:23.345Z,432.00
2023-10-26T04:25:18.396Z,428.00
2023-10-26T04:26:14.776Z,424.00
2023-10-26T04:27:10.017Z,435.00
2023-10-26T04:28:05.789Z,434.00
2023-10-26T04:29:00.968Z,437.00
2023-10-26T04:29:55.992Z,438.00
2023-10-26T04:30:51.836Z,431.00
2023-10-26T04:31:47.019Z,439.00
2023-10-26T04:32:42.986Z,435.00
2023-10-26T04:33:37.984Z,433.00
2023-10-26T04:34:33.332Z,436.00
2023-10-26T04:35:29.014Z,427.00
2023-10-26T04:36:24.308Z,428.00
2023-10-26T04:37:19.510Z,426.00
2023-10-26T04:38:15.830Z,429.00
2023-10-26T04:39:11.300Z,425.00
2023-10-26T04:40:06.786Z,425.00
2023-10-26T04:41:01.896Z,424.00
2023-10-26T04:41:57.049Z,436.00
2023-10-26T04:42:52.219Z,433.00
2023-10-26T04:43:47.565Z,445.00
2023-10-26T04:44:43.366Z,449.00
2023-10-26T04:45:38.422Z,437.00
2023-10-26T04:46:33.480Z,434.00
2023-10-26T04:47:30.149Z,435.00
2023-10-26T04:48:25.201Z,430.00
2023-10-26T04:49:20.974Z,432.00
2023-10-26T04:50:16.013Z,433.00
2023-10-26T04:51:11.256Z,437.00
2023-10-26T04:52:06.990Z,428.00
2023-10-26T04:53:02.197Z,428.00
2023-10-26T04:53:58.057Z,422.00
2023-10-26T04:54:53.140Z,421.00
2023-10-26T04:55:48.426Z,416.00
2023-10-26T04:56:44.235Z,425.00
2023-10-26T04:57:39.363Z,432.00
2023-10-26T04:58:34.767Z,419.00
2023-10-26T04:59:29.954Z,424.00
2023-10-26T05:00:24.923Z,422.00
2023-10-26T05:01:19.971Z,423.00
2023-10-26T05:02:15.101Z,422.00
2023-10-26T05:03:13.929Z,422.00
2023-10-26T05:04:08.932Z,419.00
2023-10-26T05:05:04.224Z,426.00
2023-10-26T05:05:59.370Z,426.00
2023-10-26T05:06:54.350Z,417.00
2023-10-26T05:07:49.414Z,423.00
2023-10-26T05:08:44.478Z,424.00
2023-10-26T05:09:39.758Z,429.00
2023-10-26T05:10:34.587Z,418.00
2023-10-26T05:11:29.632Z,433.00
2023-10-26T05:12:24.869Z,422.00
2023-10-26T05:13:19.861Z,439.00
2023-10-26T05:14:14.887Z,429.00
2023-10-26T05:15:10.019Z,412.00
2023-10-26T05:16:04.982Z,424.00
2023-10-26T05:16:59.987Z,417.00
2023-10-26T05:17:55.090Z,419.00
2023-10-26T05:18:50.163Z,422.00
2023-10-26T05:19:45.142Z,419.00
2023-10-26T05:20:40.910Z,418.00
2023-10-26T05:21:36.107Z,420.00
2023-10-26T05:22:31.534Z,422.00
2023-10-26T05:23:26.780Z,425.00
2023-10-26T05:24:22.023Z,419.00
2023-10-26T05:25:17.236Z,423.00
2023-10-26T05:26:12.317Z,423.00
2023-10-26T05:27:07.711Z,421.00
2023-10-26T05:28:02.713Z,427.00
2023-10-26T05:28:57.891Z,439.00
2023-10-26T05:29:53.055Z,432.00
2023-10-26T05:30:48.136Z,420.00
2023-10-26T05:31:43.227Z,427.00
2023-10-26T05:32:38.188Z,435.00
2023-10-26T05:33:34.752Z,432.00
2023-10-26T05:34:28.333Z,431.00
2023-10-26T05:35:23.539Z,430.00
2023-10-26T05:36:18.530Z,425.00
2023-10-26T05:37:13.440Z,430.00
2023-10-26T05:38:08.557Z,421.00
2023-10-26T05:39:03.588Z,426.00
2023-10-26T05:39:58.734Z,430.00
2023-10-26T05:40:53.765Z,427.00
2023-10-26T05:41:48.919Z,432.00
2023-10-26T05:42:43.877Z,464.00
2023-10-26T05:43:39.013Z,443.00
2023-10-26T05:44:34.016Z,422.00
2023-10-26T05:45:29.202Z,426.00
2023-10-26T05:46:24.214Z,440.00
2023-10-26T05:47:21.892Z,429.00
2023-10-26T05:48:14.367Z,420.00
2023-10-26T05:49:09.385Z,423.00
2023-10-26T05:50:04.488Z,426.00
2023-10-26T05:51:03.925Z,429.00
2023-10-26T05:51:58.830Z,430.00
2023-10-26T05:52:53.854Z,424.00
2023-10-26T05:53:48.820Z,423.00
2023-10-26T05:54:44.147Z,421.00
2023-10-26T05:55:39.183Z,428.00
2023-10-26T05:56:34.089Z,425.00
2023-10-26T05:57:29.137Z,430.00
2023-10-26T05:58:24.222Z,436.00
2023-10-26T05:59:19.328Z,438.00
2023-10-26T06:00:14.448Z,426.00
2023-10-26T06:01:09.485Z,422.00
2023-10-26T06:02:04.809Z,428.00
2023-10-26T06:03:00.249Z,422.00
2023-10-26T06:03:55.442Z,421.00
2023-10-26T06:04:51.163Z,427.00
2023-10-26T06:05:46.523Z,434.00
2023-10-26T06:06:42.278Z,448.00
2023-10-26T06:07:37.643Z,442.00
2023-10-26T06:08:32.906Z,429.00
2023-10-26T06:09:28.792Z,433.00
2023-10-26T06:10:24.056Z,434.00
2023-10-26T06:11:19.305Z,435.00
2023-10-26T06:12:15.646Z,434.00
2023-10-26T06:13:11.021Z,443.00
2023-10-26T06:14:06.813Z,427.00
2023-10-26T06:15:02.256Z,432.00
2023-10-26T06:15:57.632Z,434.00
2023-10-26T06:16:53.281Z,431.00
2023-10-26T06:17:48.643Z,422.00
2023-10-26T06:18:44.608Z,426.00
2023-10-26T06:19:39.807Z,423.00
2023-10-26T06:20:35.349Z,422.00
2023-10-26T06:21:30.909Z,426.00
2023-10-26T06:22:26.225Z,438.00
2023-10-26T06:23:21.702Z,459.00
2023-10-26T06:24:17.834Z,456.00
2023-10-26T06:25:13.044Z,440.00
2023-10-26T06:26:08.892Z,437.00
2023-10-26T06:27:04.161Z,438.00
2023-10-26T06:27:59.661Z,435.00
2023-10-26T06:28:55.324Z,446.00
2023-10-26T06:29:50.693Z,446.00
2023-10-26T06:30:46.592Z,427.00
2023-10-26T06:31:41.810Z,432.00
2023-10-26T06:32:37.173Z,431.00
2023-10-26T06:33:32.874Z,428.00
2023-10-26T06:34:28.182Z,428.00
2023-10-26T06:35:23.553Z,441.00
2023-10-26T06:36:19.881Z,427.00
2023-10-26T06:37:15.163Z,428.00
2023-10-26T06:38:10.560Z,426.00
2023-10-26T06:39:05.688Z,426.00
2023-10-26T06:40:00.559Z,423.00
2023-10-26T06:40:55.693Z,430.00
2023-10-26T06:41:50.685Z,430.00
2023-10-26T06:42:45.783Z,436.00
2023-10-26T06:43:40.886Z,438.00
2023-10-26T06:44:36.009Z,437.00
2023-10-26T06:45:31.077Z,424.00
2023-10-26T06:46:26.419Z,437.00
2023-10-26T06:47:21.232Z,432.00
2023-10-26T06:48:17.829Z,417.00
2023-10-26T06:49:26.516Z,422.00
2023-10-26T06:50:07.421Z,429.00
2023-10-26T06:51:01.678Z,439.00
2023-10-26T06:51:56.483Z,435.00
2023-10-26T06:52:51.778Z,438.00
2023-10-26T06:53:47.493Z,432.00
2023-10-26T06:54:43.191Z,438.00
2023-10-26T06:55:38.216Z,431.00
2023-10-26T06:56:33.491Z,436.00
2023-10-26T06:57:28.903Z,423.00
2023-10-26T06:58:23.819Z,425.00
2023-10-26T06:59:18.943Z,441.00
2023-10-26T07:00:14.047Z,438.00
2023-10-26T07:01:19.953Z,435.00
2023-10-26T07:02:10.210Z,424.00
2023-10-26T07:03:00.380Z,435.00
2023-10-26T07:03:54.414Z,436.00
2023-10-26T07:04:49.464Z,435.00
2023-10-26T07:05:44.444Z,437.00
2023-10-26T07:06:39.608Z,430.00
2023-10-26T07:07:34.926Z,428.00
2023-10-26T07:08:30.061Z,432.00
2023-10-26T07:09:25.145Z,432.00
2023-10-26T07:10:20.183Z,429.00
2023-10-26T07:11:15.153Z,428.00
2023-10-26T07:12:10.188Z,428.00
2023-10-26T07:13:07.539Z,429.00
2023-10-26T07:14:02.669Z,428.00
2023-10-26T07:14:57.763Z,432.00
2023-10-26T07:15:52.931Z,424.00
2023-10-26T07:16:47.895Z,433.00
2023-10-26T07:17:43.043Z,430.00
2023-10-26T07:18:38.022Z,423.00
2023-10-26T07:19:33.010Z,424.00
2023-10-26T07:20:28.003Z,425.00
2023-10-26T07:21:23.168Z,427.00
2023-10-26T07:22:18.293Z,423.00
2023-10-26T07:23:13.853Z,421.00
2023-10-26T07:24:09.722Z,432.00
2023-10-26T07:25:05.120Z,443.00
2023-10-26T07:26:00.537Z,433.00
2023-10-26T07:26:56.367Z,428.00
2023-10-26T07:27:51.597Z,439.00
2023-10-26T07:28:47.513Z,451.00
2023-10-26T07:29:42.911Z,448.00
2023-10-26T07:30:38.241Z,461.00
2023-10-26T07:31:34.051Z,449.00
2023-10-26T07:32:29.464Z,445.00
2023-10-26T07:33:24.915Z,448.00
2023-10-26T07:34:21.457Z,449.00
2023-10-26T07:35:16.834Z,443.00
2023-10-26T07:36:12.829Z,450.00
2023-10-26T07:37:09.090Z,446.00
2023-10-26T07:38:36.827Z,441.00
2023-10-26T07:39:47.196Z,440.00
2023-10-26T07:40:29.632Z,437.00
2023-10-26T07:40:52.195Z,437.00
2023-10-26T07:42:06.378Z,438.00
2023-10-26T07:42:43.071Z,448.00
2023-10-26T07:43:38.359Z,447.00
2023-10-26T07:44:33.705Z,444.00
2023-10-26T07:45:29.275Z,451.00
2023-10-26T07:46:25.416Z,444.00
2023-10-26T07:47:20.988Z,448.00
2023-10-26T07:48:16.820Z,435.00
2023-10-26T07:49:12.208Z,443.00
2023-10-26T07:50:07.669Z,448.00
2023-10-26T07:51:03.348Z,443.00
2023-10-26T07:51:58.912Z,446.00
2023-10-26T07:52:54.572Z,442.00
2023-10-26T07:53:49.836Z,439.00
2023-10-26T07:54:45.502Z,441.00
2023-10-26T07:55:41.225Z,444.00
2023-10-26T07:56:36.532Z,446.00
2023-10-26T07:57:31.915Z,448.00
2023-10-26T07:58:28.216Z,451.00
2023-10-26T07:59:23.620Z,447.00
2023-10-26T08:00:19.593Z,446.00
2023-10-26T08:01:14.997Z,447.00
2023-10-26T08:02:10.642Z,452.00
2023-10-26T08:03:06.304Z,439.00
2023-10-26T08:04:01.755Z,444.00
2023-10-26T08:04:57.572Z,443.00
2023-10-26T08:05:52.997Z,447.00
2023-10-26T08:06:48.245Z,439.00
2023-10-26T08:07:44.255Z,439.00
2023-10-26T08:08:39.579Z,443.00
2023-10-26T08:09:35.149Z,447.00
2023-10-26T08:10:31.268Z,444.00
2023-10-26T08:11:26.782Z,442.00
2023-10-26T08:12:22.702Z,448.00
2023-10-26T08:13:18.176Z,451.00
2023-10-26T08:14:46.162Z,444.00
2023-10-26T08:16:29.176Z,449.00
2023-10-26T08:16:33.872Z,454.00
2023-10-26T08:17:01.436Z,454.00
2023-10-26T08:17:56.196Z,447.00
2023-10-26T08:18:51.422Z,444.00
2023-10-26T08:19:47.932Z,443.00
2023-10-26T08:20:43.423Z,444.00
2023-10-26T08:21:39.339Z,448.00
2023-10-26T08:22:34.800Z,446.00
2023-10-26T08:23:30.353Z,450.00
2023-10-26T08:24:25.951Z,452.00
2023-10-26T08:25:23.625Z,456.00
2023-10-26T08:26:17.196Z,448.00
2023-10-26T08:27:12.468Z,445.00
2023-10-26T08:28:08.017Z,448.00
2023-10-26T08:29:13.626Z,452.00
2023-10-26T08:30:00.280Z,462.00
2023-10-26T08:30:54.707Z,462.00
2023-10-26T08:31:50.266Z,459.00
2023-10-26T08:32:45.748Z,455.00
2023-10-26T08:33:42.471Z,455.00
2023-10-26T08:34:37.828Z,453.00
2023-10-26T08:35:33.759Z,452.00
2023-10-26T08:36:29.055Z,452.00
2023-10-26T08:37:24.803Z,456.00
2023-10-26T08:38:19.969Z,464.00
2023-10-26T08:39:16.062Z,456.00
2023-10-26T08:40:11.451Z,455.00
2023-10-26T08:41:06.935Z,447.00
2023-10-26T08:42:02.608Z,447.00
2023-10-26T08:42:58.288Z,452.00
2023-10-26T08:43:53.770Z,448.00
2023-10-26T08:44:49.312Z,455.00
2023-10-26T08:45:44.731Z,447.00
2023-10-26T08:46:40.242Z,444.00
2023-10-26T08:47:36.509Z,458.00
2023-10-26T08:48:31.937Z,454.00
2023-10-26T08:49:27.637Z,457.00
2023-10-26T08:50:23.039Z,455.00
2023-10-26T08:51:18.446Z,448.00
2023-10-26T08:52:14.388Z,453.00
2023-10-26T08:53:09.821Z,450.00
2023-10-26T08:54:05.526Z,452.00
2023-10-26T08:55:00.892Z,458.00
2023-10-26T08:55:56.517Z,447.00
2023-10-26T08:56:52.348Z,445.00
2023-10-26T08:57:47.805Z,454.00
2023-10-26T08:58:43.160Z,450.00
2023-10-26T08:59:39.434Z,443.00
2023-10-26T09:00:34.767Z,452.00
2023-10-26T09:01:30.802Z,451.00
2023-10-26T09:02:26.223Z,449.00
2023-10-26T09:03:21.806Z,449.00
2023-10-26T09:04:17.603Z,452.00
2023-10-26T09:05:12.971Z,463.00
2023-10-26T09:06:08.753Z,451.00
2023-10-26T09:07:04.185Z,448.00
2023-10-26T09:07:59.616Z,453.00
2023-10-26T09:08:55.526Z,449.00
2023-10-26T09:09:50.792Z,446.00
2023-10-26T09:10:46.252Z,441.00
2023-10-26T09:11:42.423Z,453.00
2023-10-26T09:12:37.951Z,457.00
2023-10-26T09:13:33.754Z,446.00
2023-10-26T09:14:29.172Z,450.00
2023-10-26T09:15:24.535Z,444.00
2023-10-26T09:16:20.358Z,444.00
2023-10-26T09:17:15.728Z,439.00
2023-10-26T09:18:11.753Z,442.00
2023-10-26T09:19:07.195Z,441.00
2023-10-26T09:20:02.485Z,436.00
2023-10-26T09:20:58.145Z,443.00
2023-10-26T09:21:53.689Z,445.00
2023-10-26T09:22:49.201Z,448.00
2023-10-26T09:23:45.500Z,437.00
2023-10-26T09:24:40.923Z,450.00
2023-10-26T09:25:36.757Z,446.00
2023-10-26T09:26:32.135Z,454.00
2023-10-26T09:27:27.508Z,448.00
2023-10-26T09:28:23.411Z,448.00
2023-10-26T09:29:18.972Z,444.00
2023-10-26T09:30:14.636Z,456.00
2023-10-26T09:31:09.921Z,454.00
2023-10-26T09:32:05.598Z,444.00
2023-10-26T09:33:01.262Z,446.00
2023-10-26T09:33:56.745Z,446.00
2023-10-26T09:34:52.177Z,443.00
2023-10-26T09:35:48.402Z,460.00
2023-10-26T09:36:43.779Z,454.00
2023-10-26T09:37:39.763Z,446.00
2023-10-26T09:38:35.168Z,446.00
2023-10-26T09:39:30.741Z,444.00
2023-10-26T09:40:26.553Z,443.00
2023-10-26T09:41:22.074Z,445.00
2023-10-26T09:42:17.312Z,439.00
2023-10-26T09:43:12.776Z,441.00
2023-10-26T09:44:08.485Z,448.00
2023-10-26T09:45:04.070Z,439.00
2023-10-26T09:45:59.366Z,443.00
2023-10-26T09:46:55.982Z,443.00
2023-10-26T09:47:51.574Z,438.00
2023-10-26T09:48:47.167Z,441.00
2023-10-26T09:49:42.826Z,443.00
2023-10-26T09:50:37.871Z,439.00
2023-10-26T09:51:33.924Z,443.00
2023-10-26T09:52:29.503Z,442.00
2023-10-26T09:53:25.293Z,447.00
2023-10-26T09:54:20.689Z,448.00
2023-10-26T09:55:16.061Z,441.00
2023-10-26T09:56:12.071Z,447.00
2023-10-26T09:57:07.492Z,447.00
2023-10-26T09:58:03.087Z,446.00
2023-10-26T09:58:59.176Z,439.00
2023-10-26T09:59:55.059Z,444.00
2023-10-26T10:00:50.084Z,441.00
2023-10-26T10:01:45.543Z,438.00
2023-10-26T10:02:40.966Z,441.00
2023-10-26T10:03:36.000Z,436.00
2023-10-26T10:04:31.000Z,440.00
2023-10-26T10:05:26.306Z,446.00
2023-10-26T10:06:21.101Z,437.00
2023-10-26T10:07:16.230Z,448.00
2023-10-26T10:08:11.541Z,442.00
2023-10-26T10:09:06.307Z,437.00
2023-10-26T10:10:01.371Z,438.00
2023-10-26T10:10:58.373Z,437.00
2023-10-26T10:11:53.386Z,443.00
2023-10-26T10:12:48.699Z,443.00
2023-10-26T10:13:43.710Z,443.00
2023-10-26T10:14:38.842Z,440.00
2023-10-26T10:15:41.844Z,444.00
2023-10-26T10:16:29.965Z,437.00
2023-10-26T10:17:23.892Z,445.00
2023-10-26T10:18:19.098Z,437.00
2023-10-26T10:19:14.005Z,446.00
2023-10-26T10:20:09.178Z,435.00
2023-10-26T10:21:04.564Z,442.00
2023-10-26T10:22:00.450Z,441.00
2023-10-26T10:22:56.001Z,440.00
2023-10-26T10:23:51.309Z,436.00
2023-10-26T10:24:47.388Z,439.00
2023-10-26T10:25:42.946Z,442.00
2023-10-26T10:26:38.504Z,441.00
2023-10-26T10:27:34.246Z,447.00
2023-10-26T10:28:29.514Z,439.00
2023-10-26T10:29:25.460Z,442.00
2023-10-26T10:30:20.810Z,442.00
2023-10-26T10:31:16.377Z,443.00
2023-10-26T10:32:12.490Z,446.00
2023-10-26T10:33:08.074Z,449.00
2023-10-26T10:34:04.089Z,445.00
2023-10-26T10:34:59.292Z,444.00
2023-10-26T10:35:54.853Z,444.00
2023-10-26T10:36:50.505Z,450.00
2023-10-26T10:37:45.835Z,446.00
2023-10-26T10:38:43.270Z,446.00
2023-10-26T10:39:37.059Z,468.00
2023-10-26T10:40:32.467Z,466.00
2023-10-26T10:41:27.582Z,464.00
2023-10-26T10:42:22.594Z,458.00
2023-10-26T10:43:17.569Z,458.00
2023-10-26T10:44:12.723Z,466.00
2023-10-26T10:45:07.681Z,463.00
2023-10-26T10:46:02.786Z,464.00
2023-10-26T10:46:57.965Z,464.00
2023-10-26T10:47:52.930Z,464.00
2023-10-26T10:48:47.886Z,463.00
2023-10-26T10:49:43.058Z,458.00
2023-10-26T10:50:38.079Z,456.00
2023-10-26T10:51:33.424Z,463.00
2023-10-26T10:52:28.184Z,463.00
2023-10-26T10:53:23.228Z,456.00
2023-10-26T10:54:36.066Z,456.00
2023-10-26T10:55:17.568Z,458.00
2023-10-26T10:56:12.578Z,454.00
2023-10-26T10:57:08.195Z,457.00
2023-10-26T10:58:03.223Z,458.00
2023-10-26T10:58:58.277Z,466.00
2023-10-26T10:59:53.326Z,454.00
2023-10-26T11:00:48.388Z,458.00
2023-10-26T11:01:43.611Z,462.00
2023-10-26T11:02:38.482Z,456.00
2023-10-26T11:03:33.507Z,458.00
2023-10-26T11:04:28.530Z,455.00
2023-10-26T11:05:23.768Z,450.00
2023-10-26T11:06:18.651Z,454.00
2023-10-26T11:07:13.717Z,451.00
2023-10-26T11:08:10.957Z,450.00
2023-10-26T11:09:05.948Z,451.00
2023-10-26T11:10:01.145Z,459.00
2023-10-26T11:10:56.143Z,472.00
2023-10-26T11:11:51.219Z,461.00
2023-10-26T11:12:46.294Z,467.00
2023-10-26T11:13:41.287Z,472.00
2023-10-26T11:14:36.334Z,482.00
2023-10-26T11:15:31.544Z,480.00
2023-10-26T11:16:26.836Z,477.00
2023-10-26T11:17:21.901Z,473.00
2023-10-26T11:18:16.914Z,475.00
2023-10-26T11:19:16.730Z,469.00
2023-10-26T11:20:12.300Z,471.00
2023-10-26T11:21:07.821Z,469.00
2023-10-26T11:22:03.332Z,477.00
2023-10-26T11:22:59.521Z,488.00
2023-10-26T11:23:54.833Z,480.00
2023-10-26T11:24:50.475Z,474.00
2023-10-26T11:25:45.816Z,488.00
2023-10-26T11:26:40.841Z,474.00
2023-10-26T11:27:36.169Z,468.00
2023-10-26T11:28:30.924Z,471.00
2023-10-26T11:29:25.914Z,474.00
2023-10-26T11:30:20.950Z,474.00
2023-10-26T11:31:16.033Z,478.00